Time;durP1;ratioP1;P1;durP2;ratioP2;P2;SDS_P1;SDS_P2;PMS_P1;PMS_P2;Temp;Humidity;BMP_temperature;BMP_pressure;BME280_temperature;BME280_humidity;BME280_pressure;Samples;Min_cycle;Max_cycle;Signal;HPM_P1;HPM_P2
2022/08/08 05:03:42;;;;;;;;;;;23.20;74.80;;;;;;5115340;28;20060;-74
2022/08/08 05:06:07;;;;;;;;;;;23.80;74.80;;;;;;5116046;28;19918;-72
2022/08/08 05:08:33;;;;;;;;;;;23.80;75.40;;;;;;5115714;28;20268;-73
2022/08/08 05:10:58;;;;;;;;;;;23.70;75.30;;;;;;5116804;28;19914;-71
2022/08/08 05:13:24;;;;;;;;;;;23.70;75.30;;;;;;5117573;28;20362;-72
2022/08/08 05:15:50;;;;;;;;;;;23.70;74.90;;;;;;5115903;28;19961;-68
2022/08/08 05:18:15;;;;;;;;;;;23.70;75.10;;;;;;5116342;28;20360;-75
2022/08/08 05:20:41;;;;;;;;;;;23.70;75.50;;;;;;5115584;28;19938;-79
2022/08/08 05:23:06;;;;;;;;;;;23.70;75.30;;;;;;5116382;28;19908;-72
2022/08/08 05:25:32;;;;;;;;;;;23.70;75.10;;;;;;5118284;28;20293;-77
2022/08/08 05:27:57;;;;;;;;;;;23.70;75.30;;;;;;5116272;28;19919;-71
2022/08/08 05:30:23;;;;;;;;;;;23.80;75.50;;;;;;5116135;28;19908;-74
2022/08/08 05:32:49;;;;;;;;;;;23.80;75.10;;;;;;5115271;28;19916;-78
2022/08/08 05:35:15;;;;;;;;;;;23.80;76.00;;;;;;5113372;28;19982;-79
2022/08/08 05:37:45;;;;;;;;;;;23.80;75.80;;;;;;5115723;28;19938;-77
2022/08/08 05:40:11;;;;;;;;;;;23.80;75.40;;;;;;5116557;28;19953;-75
2022/08/08 05:42:37;;;;;;;;;;;23.80;74.50;;;;;;5116831;28;20013;-73
2022/08/08 05:45:03;;;;;;;;;;;23.70;76.00;;;;;;5114122;28;20358;-77
2022/08/08 05:47:29;;;;;;;;;;;23.70;75.10;;;;;;5115136;28;19919;-75
2022/08/08 05:49:56;;;;;;;;;;;23.80;75.70;;;;;;5115994;28;19915;-74
2022/08/08 05:52:22;;;;;;;;;;;23.90;75.30;;;;;;5116402;28;19911;-75
2022/08/08 05:54:47;;;;;;;;;;;23.90;75.30;;;;;;5115419;28;19908;-74
2022/08/08 05:57:16;;;;;;;;;;;23.90;75.30;;;;;;5115675;28;20467;-79
2022/08/08 05:59:48;;;;;;;;;;;23.90;75.10;;;;;;5115813;28;20358;-76
2022/08/08 06:05:08;;;;;;;;;;;23.90;74.70;;;;;;5114258;28;19997;-76
2022/08/08 06:07:36;;;;;;;;;;;23.90;75.20;;;;;;5114205;28;20372;-76
2022/08/08 06:10:02;;;;;;;;;;;24.00;75.10;;;;;;5115704;28;19908;-76
2022/08/08 06:12:29;;;;;;;;;;;24.00;75.10;;;;;;5115513;28;19920;-75
2022/08/08 06:14:55;;;;;;;;;;;24.00;75.50;;;;;;5115740;28;19908;-76
2022/08/08 06:17:21;;;;;;;;;;;24.10;75.00;;;;;;5114255;28;19908;-75
2022/08/08 06:19:47;;;;;;;;;;;24.20;75.30;;;;;;5114309;28;19907;-76
2022/08/08 06:22:12;;;;;;;;;;;24.20;74.70;;;;;;5115438;28;20369;-76
2022/08/08 06:24:38;;;;;;;;;;;24.30;75.00;;;;;;5115931;28;19923;-74
2022/08/08 06:27:05;;;;;;;;;;;24.40;74.60;;;;;;5115449;28;19953;-77
2022/08/08 06:29:38;;;;;;;;;;;24.40;74.80;;;;;;5115111;28;19966;-76
2022/08/08 06:32:07;;;;;;;;;;;24.50;74.20;;;;;;5096717;28;19907;-75
2022/08/08 06:34:36;;;;;;;;;;;24.50;74.00;;;;;;5115280;28;19907;-76
2022/08/08 06:37:02;;;;;;;;;;;24.60;74.00;;;;;;5113851;28;19915;-76
2022/08/08 06:39:29;;;;;;;;;;;24.60;73.80;;;;;;5114949;28;19915;-75
2022/08/08 06:41:58;;;;;;;;;;;24.70;73.80;;;;;;5114882;28;19915;-76
2022/08/08 06:44:25;;;;;;;;;;;24.60;73.80;;;;;;5114777;28;19920;-77
2022/08/08 06:46:51;;;;;;;;;;;24.70;73.70;;;;;;5115118;28;19908;-76
2022/08/08 06:49:17;;;;;;;;;;;24.70;74.20;;;;;;5114865;28;20403;-75
2022/08/08 06:51:42;;;;;;;;;;;24.70;74.00;;;;;;5114865;28;19908;-77
2022/08/08 06:54:08;;;;;;;;;;;24.70;73.70;;;;;;5114884;28;19919;-77
2022/08/08 06:56:34;;;;;;;;;;;24.70;73.60;;;;;;5114969;28;19915;-75
2022/08/08 06:59:00;;;;;;;;;;;24.80;73.70;;;;;;5114803;28;19908;-76
2022/08/08 07:01:28;;;;;;;;;;;24.80;73.50;;;;;;5113685;28;19942;-75
2022/08/08 07:04:01;;;;;;;;;;;24.90;73.40;;;;;;5114369;28;19919;-76
2022/08/08 07:06:30;;;;;;;;;;;25.00;73.30;;;;;;5114720;28;19926;-75
2022/08/08 07:09:06;;;;;;;;;;;25.00;73.20;;;;;;5114687;28;19953;-75
2022/08/08 07:11:33;;;;;;;;;;;25.10;73.30;;;;;;5114528;28;19909;-75
2022/08/08 07:14:00;;;;;;;;;;;25.10;73.20;;;;;;5114714;28;19912;-75
2022/08/08 07:16:46;;;;;;;;;;;25.10;73.20;;;;;;5113223;28;20053;-76
2022/08/08 07:19:14;;;;;;;;;;;25.10;73.20;;;;;;5114125;28;20282;-75
2022/08/08 07:21:54;;;;;;;;;;;25.10;73.20;;;;;;5114658;28;20387;-77
2022/08/08 07:24:24;;;;;;;;;;;25.10;73.20;;;;;;5114580;28;19982;-75
2022/08/08 07:26:51;;;;;;;;;;;25.10;73.20;;;;;;5112878;28;20384;-76
2022/08/08 07:29:17;;;;;;;;;;;25.00;73.30;;;;;;5113985;28;19998;-76
2022/08/08 07:31:43;;;;;;;;;;;25.10;73.20;;;;;;5114415;28;20000;-75
2022/08/08 07:34:09;;;;;;;;;;;25.00;73.20;;;;;;5114434;28;19915;-75
2022/08/08 07:36:36;;;;;;;;;;;25.10;73.20;;;;;;5114720;28;19985;-76
2022/08/08 07:39:01;;;;;;;;;;;25.10;73.20;;;;;;5114569;28;19908;-79
2022/08/08 07:41:27;;;;;;;;;;;25.10;73.20;;;;;;5113032;28;19953;-75
2022/08/08 07:43:56;;;;;;;;;;;25.10;73.10;;;;;;5117668;28;19908;-75
2022/08/08 07:46:21;;;;;;;;;;;25.10;73.20;;;;;;5117366;28;19912;-77
2022/08/08 07:48:47;;;;;;;;;;;25.10;73.20;;;;;;5118719;28;19914;-75
2022/08/08 07:51:12;;;;;;;;;;;25.10;73.30;;;;;;5118597;28;19916;-80
2022/08/08 07:53:38;;;;;;;;;;;25.10;73.20;;;;;;5118696;28;19947;-75
2022/08/08 07:56:05;;;;;;;;;;;25.10;73.20;;;;;;5118242;28;19933;-76
2022/08/08 07:58:31;;;;;;;;;;;25.10;73.10;;;;;;5118015;28;20273;-76
2022/08/08 08:01:09;;;;;;;;;;;25.20;73.30;;;;;;5118333;28;20319;-77
2022/08/08 08:03:57;;;;;;;;;;;25.20;73.20;;;;;;5118130;28;19950;-77
2022/08/08 08:06:24;;;;;;;;;;;25.20;73.10;;;;;;5118332;28;19923;-78
2022/08/08 08:08:55;;;;;;;;;;;25.20;73.40;;;;;;5116873;28;19908;-78
2022/08/08 08:11:22;;;;;;;;;;;25.20;73.10;;;;;;5118523;28;19934;-77
2022/08/08 08:13:48;;;;;;;;;;;25.20;73.10;;;;;;5118061;28;19908;-77
2022/08/08 08:16:16;;;;;;;;;;;25.20;73.20;;;;;;5117997;28;19908;-77
2022/08/08 08:18:42;;;;;;;;;;;25.20;73.20;;;;;;5117899;28;19908;-75
2022/08/08 08:21:08;;;;;;;;;;;25.20;73.10;;;;;;5116521;28;19907;-75
2022/08/08 08:23:34;;;;;;;;;;;25.20;73.10;;;;;;5117712;28;20045;-76
2022/08/08 08:26:00;;;;;;;;;;;25.30;73.10;;;;;;5117768;28;19962;-75
2022/08/08 08:28:26;;;;;;;;;;;25.40;73.10;;;;;;5117934;28;20309;-76
2022/08/08 08:30:52;;;;;;;;;;;25.40;73.00;;;;;;5117610;28;20395;-77
2022/08/08 08:33:17;;;;;;;;;;;25.40;73.00;;;;;;5118149;28;19908;-76
2022/08/08 08:35:43;;;;;;;;;;;25.50;72.80;;;;;;5117765;28;19965;-75
2022/08/08 08:38:09;;;;;;;;;;;25.50;72.70;;;;;;5117246;28;20397;-76
2022/08/08 08:40:35;;;;;;;;;;;25.50;72.80;;;;;;5117564;28;19947;-76
2022/08/08 08:43:01;;;;;;;;;;;25.50;72.70;;;;;;5117271;28;19908;-76
2022/08/08 08:45:27;;;;;;;;;;;25.60;72.70;;;;;;5117593;28;20368;-76
2022/08/08 08:47:53;;;;;;;;;;;25.60;72.70;;;;;;5117462;28;20010;-76
2022/08/08 08:50:19;;;;;;;;;;;25.60;72.50;;;;;;5117457;28;19908;-75
2022/08/08 08:52:44;;;;;;;;;;;25.70;72.60;;;;;;5116558;28;20414;-75
2022/08/08 08:55:12;;;;;;;;;;;25.80;72.60;;;;;;5117858;28;19908;-74
2022/08/08 08:57:38;;;;;;;;;;;25.80;72.50;;;;;;5116050;28;20206;-76
2022/08/08 09:00:04;;;;;;;;;;;25.90;72.40;;;;;;5117236;28;19934;-77
2022/08/08 09:02:30;;;;;;;;;;;25.90;72.20;;;;;;5116729;28;20349;-76
2022/08/08 09:05:01;;;;;;;;;;;26.00;72.20;;;;;;5117030;28;19963;-76
2022/08/08 09:07:27;;;;;;;;;;;26.10;72.20;;;;;;5115642;28;19912;-76
2022/08/08 09:09:53;;;;;;;;;;;26.10;72.00;;;;;;5115685;28;19953;-76
2022/08/08 09:12:22;;;;;;;;;;;26.20;71.80;;;;;;5116721;28;19912;-75
2022/08/08 09:14:50;;;;;;;;;;;26.30;71.70;;;;;;5115784;28;19912;-76
2022/08/08 09:17:16;;;;;;;;;;;26.40;71.50;;;;;;5119097;28;19914;-76
2022/08/08 09:19:42;;;;;;;;;;;26.50;71.50;;;;;;5115212;28;20299;-76
2022/08/08 09:22:08;;;;;;;;;;;26.60;71.40;;;;;;5116312;28;19907;-76
2022/08/08 09:24:37;;;;;;;;;;;26.60;71.30;;;;;;5116768;28;19959;-76
2022/08/08 09:27:07;;;;;;;;;;;26.70;71.20;;;;;;5116650;28;20278;-77
2022/08/08 09:29:42;;;;;;;;;;;26.70;70.80;;;;;;5116672;28;20250;-75
2022/08/08 09:32:11;;;;;;;;;;;26.80;70.80;;;;;;5116422;28;19907;-76
2022/08/08 09:34:38;;;;;;;;;;;26.90;70.70;;;;;;5115276;28;19908;-76
2022/08/08 09:37:06;;;;;;;;;;;26.90;70.70;;;;;;5115113;28;19916;-75
2022/08/08 09:39:40;;;;;;;;;;;26.90;70.60;;;;;;5116575;28;19995;-73
2022/08/08 09:42:09;;;;;;;;;;;26.90;70.40;;;;;;5116613;28;19915;-77
2022/08/08 09:44:54;;;;;;;;;;;26.90;70.30;;;;;;5114843;28;20315;-82
2022/08/08 09:47:22;;;;;;;;;;;27.00;70.20;;;;;;5114807;28;19912;-75
2022/08/08 09:49:47;;;;;;;;;;;27.00;70.20;;;;;;5116118;28;19985;-76
2022/08/08 09:52:15;;;;;;;;;;;27.00;70.20;;;;;;5115825;28;20270;-77
2022/08/08 09:54:42;;;;;;;;;;;27.00;70.00;;;;;;5115893;28;19917;-76
2022/08/08 09:57:08;;;;;;;;;;;27.00;70.00;;;;;;5114489;28;19908;-75
2022/08/08 09:59:35;;;;;;;;;;;27.00;70.10;;;;;;5114723;28;19911;-77
2022/08/08 10:02:01;;;;;;;;;;;27.00;70.10;;;;;;5115654;28;19998;-76
2022/08/08 10:04:28;;;;;;;;;;;27.10;70.10;;;;;;5115743;28;19919;-76
2022/08/08 10:06:53;;;;;;;;;;;27.10;70.00;;;;;;5115527;28;19951;-77
2022/08/08 10:09:32;;;;;;;;;;;27.20;69.90;;;;;;5115945;28;20405;-77
2022/08/08 10:12:02;;;;;;;;;;;27.30;69.90;;;;;;5115697;28;20002;-78
2022/08/08 10:14:34;;;;;;;;;;;27.30;69.50;;;;;;5115559;28;19915;-77
2022/08/08 10:17:04;;;;;;;;;;;27.30;69.40;;;;;;5115431;28;19918;-76
2022/08/08 10:19:34;;;;;;;;;;;27.40;69.30;;;;;;5115512;28;19912;-77
2022/08/08 10:22:01;;;;;;;;;;;27.40;69.30;;;;;;5115172;28;19927;-78
2022/08/08 10:24:27;;;;;;;;;;;27.50;69.20;;;;;;5115401;28;19916;-77
2022/08/08 10:26:54;;;;;;;;;;;27.50;69.10;;;;;;5115405;28;19975;-77
2022/08/08 10:29:32;;;;;;;;;;;27.50;68.80;;;;;;5115462;28;19908;-77
2022/08/08 10:34:51;;;;;;;;;;;27.50;68.70;;;;;;5115446;28;19962;-77
2022/08/08 10:37:25;;;;;;;;;;;27.50;68.50;;;;;;5115016;28;20263;-78
2022/08/08 10:39:52;;;;;;;;;;;27.40;68.60;;;;;;5115316;28;20305;-76
2022/08/08 10:42:19;;;;;;;;;;;27.40;68.60;;;;;;5113941;28;19911;-77
2022/08/08 10:44:44;;;;;;;;;;;27.40;68.70;;;;;;5113735;28;20358;-78
2022/08/08 10:47:14;;;;;;;;;;;27.40;68.70;;;;;;5114814;28;19908;-75
2022/08/08 10:49:40;;;;;;;;;;;27.40;68.80;;;;;;5115678;28;19908;-77
2022/08/08 10:52:06;;;;;;;;;;;27.40;68.80;;;;;;5114764;28;20327;-77
2022/08/08 10:54:32;;;;;;;;;;;27.50;68.60;;;;;;5114928;28;19908;-76
2022/08/08 10:56:58;;;;;;;;;;;27.50;68.50;;;;;;5115208;28;19908;-77
2022/08/08 10:59:24;;;;;;;;;;;27.60;68.50;;;;;;5114997;28;19939;-78
2022/08/08 11:01:50;;;;;;;;;;;27.60;68.20;;;;;;5114589;28;19919;-77
2022/08/08 11:04:15;;;;;;;;;;;27.60;68.10;;;;;;5114578;28;19983;-77
2022/08/08 11:06:41;;;;;;;;;;;27.60;67.90;;;;;;5114664;28;20036;-76
2022/08/08 11:09:08;;;;;;;;;;;27.60;67.90;;;;;;5114870;28;19931;-77
2022/08/08 11:11:40;;;;;;;;;;;27.60;67.90;;;;;;5114497;28;19907;-76
2022/08/08 11:14:06;;;;;;;;;;;27.60;67.80;;;;;;5114298;28;19912;-77
2022/08/08 11:16:33;;;;;;;;;;;27.50;67.80;;;;;;5114209;28;20273;-77
2022/08/08 11:18:59;;;;;;;;;;;27.60;67.90;;;;;;5114014;28;19914;-77
2022/08/08 11:21:26;;;;;;;;;;;27.50;67.90;;;;;;5114691;28;20342;-78
2022/08/08 11:23:52;;;;;;;;;;;27.50;68.10;;;;;;5114646;28;19934;-77
2022/08/08 11:26:18;;;;;;;;;;;27.50;68.20;;;;;;5113203;28;19911;-76
2022/08/08 11:28:44;;;;;;;;;;;27.50;68.10;;;;;;5114562;28;19951;-77
2022/08/08 11:31:13;;;;;;;;;;;27.50;68.10;;;;;;5114170;28;19912;-80
2022/08/08 11:33:39;;;;;;;;;;;27.40;68.00;;;;;;5113551;28;19961;-76
2022/08/08 11:36:05;;;;;;;;;;;27.40;68.10;;;;;;5113409;28;19911;-77
2022/08/08 11:38:31;;;;;;;;;;;27.40;68.10;;;;;;5114565;28;20010;-76
2022/08/08 11:40:56;;;;;;;;;;;27.40;68.20;;;;;;5114426;28;19942;-76
2022/08/08 11:43:24;;;;;;;;;;;27.40;68.20;;;;;;5114611;28;19907;-78
2022/08/08 11:45:50;;;;;;;;;;;27.40;68.20;;;;;;5114047;28;20300;-77
2022/08/08 11:48:16;;;;;;;;;;;27.40;68.00;;;;;;5113086;28;19916;-77
2022/08/08 11:50:42;;;;;;;;;;;27.40;68.20;;;;;;5113170;28;19912;-77
2022/08/08 11:53:08;;;;;;;;;;;27.40;68.20;;;;;;5114701;28;19908;-76
2022/08/08 11:55:34;;;;;;;;;;;27.40;68.80;;;;;;5114532;28;19943;-77
2022/08/08 11:58:01;;;;;;;;;;;27.30;68.20;;;;;;5113977;28;19911;-77
2022/08/08 12:00:27;;;;;;;;;;;27.40;68.40;;;;;;5114267;28;19907;-76
2022/08/08 12:02:53;;;;;;;;;;;27.40;68.30;;;;;;5114345;28;19959;-77
2022/08/08 12:05:29;;;;;;;;;;;27.40;68.40;;;;;;5114075;28;19973;-77
2022/08/08 12:07:55;;;;;;;;;;;27.40;68.40;;;;;;5113116;28;19908;-77
2022/08/08 12:10:22;;;;;;;;;;;27.40;68.40;;;;;;5114107;28;19914;-76
2022/08/08 12:12:49;;;;;;;;;;;27.50;68.40;;;;;;5112793;28;19907;-76
2022/08/08 12:15:28;;;;;;;;;;;27.50;68.30;;;;;;5114175;28;19994;-76
2022/08/08 12:17:54;;;;;;;;;;;27.50;68.20;;;;;;5112621;28;19908;-77
2022/08/08 12:20:19;;;;;;;;;;;27.60;68.10;;;;;;5114270;28;19912;-76
2022/08/08 12:22:47;;;;;;;;;;;27.60;68.20;;;;;;5113882;28;20293;-76
2022/08/08 12:25:23;;;;;;;;;;;27.60;68.20;;;;;;5113642;28;19915;-77
2022/08/08 12:27:49;;;;;;;;;;;27.60;68.20;;;;;;5113961;28;19915;-77
2022/08/08 12:30:15;;;;;;;;;;;27.60;67.90;;;;;;5118048;28;19908;-77
2022/08/08 12:32:44;;;;;;;;;;;27.70;68.00;;;;;;5117840;28;19908;-74
2022/08/08 12:35:22;;;;;;;;;;;27.80;67.90;;;;;;5116262;28;20010;-77
2022/08/08 12:38:07;;;;;;;;;;;27.80;67.80;;;;;;5117897;28;19939;-76
2022/08/08 12:40:36;;;;;;;;;;;27.80;67.90;;;;;;5117556;28;20450;-76
2022/08/08 12:43:01;;;;;;;;;;;27.90;67.80;;;;;;5117882;28;19915;-78
2022/08/08 12:45:34;;;;;;;;;;;27.90;67.60;;;;;;5117175;28;19916;-76
2022/08/08 12:48:03;;;;;;;;;;;27.90;67.50;;;;;;5117150;28;20370;-77
2022/08/08 12:50:42;;;;;;;;;;;27.90;67.50;;;;;;5117697;28;19915;-76
2022/08/08 12:53:28;;;;;;;;;;;27.90;67.30;;;;;;5116082;28;19990;-78
2022/08/08 12:55:58;;;;;;;;;;;28.00;67.30;;;;;;5117173;28;19908;-76
2022/08/08 12:58:24;;;;;;;;;;;28.10;67.60;;;;;;5116930;28;19915;-76
2022/08/08 13:00:50;;;;;;;;;;;28.20;67.20;;;;;;5116755;28;19912;-77
2022/08/08 13:03:26;;;;;;;;;;;28.30;67.10;;;;;;5117061;28;19973;-76
2022/08/08 13:06:02;;;;;;;;;;;28.30;67.00;;;;;;5115876;28;20014;-77
2022/08/08 13:08:36;;;;;;;;;;;28.40;66.90;;;;;;5115636;28;19915;-76
2022/08/08 13:11:02;;;;;;;;;;;28.50;66.60;;;;;;5114619;28;20425;-77
2022/08/08 13:13:29;;;;;;;;;;;28.50;66.40;;;;;;5115744;28;20432;-77
2022/08/08 13:15:55;;;;;;;;;;;28.60;66.50;;;;;;5114584;28;19908;-77
2022/08/08 13:18:21;;;;;;;;;;;28.70;66.30;;;;;;5116142;28;20368;-75
2022/08/08 13:20:46;;;;;;;;;;;28.80;66.10;;;;;;5115491;28;19992;-76
2022/08/08 13:23:16;;;;;;;;;;;28.80;65.90;;;;;;5115407;28;19915;-77
2022/08/08 13:25:42;;;;;;;;;;;29.00;65.50;;;;;;5114101;28;19916;-83
2022/08/08 13:28:07;;;;;;;;;;;29.10;65.70;;;;;;5115565;28;19908;-77
2022/08/08 13:30:33;;;;;;;;;;;29.20;65.30;;;;;;5113853;28;19915;-77
2022/08/08 13:33:00;;;;;;;;;;;29.30;65.40;;;;;;5115410;28;19912;-76
2022/08/08 13:35:26;;;;;;;;;;;29.50;65.40;;;;;;5115318;28;19930;-77
2022/08/08 13:37:59;;;;;;;;;;;29.80;65.30;;;;;;5115262;28;20408;-76
2022/08/08 13:40:25;;;;;;;;;;;30.10;65.20;;;;;;5114139;28;20003;-75
2022/08/08 13:42:51;;;;;;;;;;;30.60;65.70;;;;;;5113970;28;19951;-77
2022/08/08 13:45:18;;;;;;;;;;;30.90;65.10;;;;;;5115142;28;19916;-78
2022/08/08 13:47:54;;;;;;;;;;;31.30;65.00;;;;;;5115711;28;19930;-76
2022/08/08 13:50:20;;;;;;;;;;;31.70;64.90;;;;;;5115007;28;19937;-77
2022/08/08 13:52:47;;;;;;;;;;;31.90;63.70;;;;;;5113641;28;19907;-78
2022/08/08 13:55:12;;;;;;;;;;;32.10;64.10;;;;;;5114944;28;20369;-77
2022/08/08 13:57:38;;;;;;;;;;;32.30;63.60;;;;;;5115383;28;19907;-78
2022/08/08 14:00:10;;;;;;;;;;;32.40;63.30;;;;;;5114063;28;19908;-77
2022/08/08 14:02:36;;;;;;;;;;;32.60;61.50;;;;;;5115053;28;19907;-77
2022/08/08 14:05:02;;;;;;;;;;;32.90;62.20;;;;;;5043496;28;2016780;-78
2022/08/08 14:07:29;;;;;;;;;;;33.20;61.70;;;;;;5115675;28;20388;-76
2022/08/08 14:10:01;;;;;;;;;;;33.50;61.70;;;;;;5116201;28;19908;-78
2022/08/08 14:12:28;;;;;;;;;;;33.80;61.00;;;;;;5115564;28;20007;-78
2022/08/08 14:14:54;;;;;;;;;;;34.20;59.00;;;;;;5115538;28;19908;-78
2022/08/08 14:17:20;;;;;;;;;;;34.50;58.40;;;;;;5115592;28;20463;-78
2022/08/08 14:19:46;;;;;;;;;;;34.80;58.70;;;;;;5113842;28;19915;-78
2022/08/08 14:22:13;;;;;;;;;;;35.10;58.50;;;;;;5115890;28;19908;-78
2022/08/08 14:24:38;;;;;;;;;;;35.40;58.60;;;;;;5116183;28;19923;-78
2022/08/08 14:27:14;;;;;;;;;;;35.60;57.40;;;;;;5116418;28;19908;-78
2022/08/08 14:29:39;;;;;;;;;;;35.80;58.20;;;;;;5115614;28;19963;-78
2022/08/08 14:32:05;;;;;;;;;;;35.90;56.80;;;;;;5115540;28;20003;-78
2022/08/08 14:34:31;;;;;;;;;;;36.00;56.10;;;;;;5113597;28;19954;-78
2022/08/08 14:36:56;;;;;;;;;;;36.20;57.00;;;;;;5115000;28;19916;-78
2022/08/08 14:39:22;;;;;;;;;;;36.40;57.80;;;;;;5115448;28;19908;-78
2022/08/08 14:41:47;;;;;;;;;;;36.50;56.30;;;;;;5110338;28;19914;-77
2022/08/08 14:44:13;;;;;;;;;;;36.70;56.10;;;;;;5107506;28;19930;-83
2022/08/08 14:46:39;;;;;;;;;;;36.90;57.70;;;;;;5115192;28;19908;-82
2022/08/08 14:49:12;;;;;;;;;;;37.00;56.30;;;;;;5114624;28;19907;-82
2022/08/08 14:51:41;;;;;;;;;;;37.10;55.00;;;;;;5114707;28;19908;-80
2022/08/08 14:54:08;;;;;;;;;;;37.40;55.20;;;;;;5114696;28;19912;-85
2022/08/08 14:56:34;;;;;;;;;;;37.70;55.10;;;;;;5114053;28;19908;-81
2022/08/08 14:59:00;;;;;;;;;;;38.00;55.20;;;;;;5114309;28;19938;-80
2022/08/08 15:01:30;;;;;;;;;;;38.20;54.80;;;;;;5113586;28;19938;-79
2022/08/08 15:03:56;;;;;;;;;;;38.50;56.10;;;;;;5113978;28;19920;-81
2022/08/08 15:06:22;;;;;;;;;;;38.70;53.90;;;;;;5113827;28;19955;-83
2022/08/08 15:08:47;;;;;;;;;;;38.80;54.40;;;;;;5114216;28;20092;-81
2022/08/08 15:11:13;;;;;;;;;;;39.00;54.10;;;;;;5112741;28;20318;-81
2022/08/08 15:13:39;;;;;;;;;;;39.20;53.50;;;;;;5114132;28;19934;-77
2022/08/08 15:16:07;;;;;;;;;;;39.20;53.30;;;;;;5114077;28;19953;-83
2022/08/08 15:18:33;;;;;;;;;;;39.30;54.30;;;;;;5114090;28;19968;-81
2022/08/08 15:20:58;;;;;;;;;;;39.40;53.00;;;;;;5114097;28;19915;-82
2022/08/08 15:23:24;;;;;;;;;;;39.40;53.10;;;;;;5114067;28;20364;-81
2022/08/08 15:25:49;;;;;;;;;;;39.20;52.70;;;;;;5112406;28;19935;-81
2022/08/08 15:28:15;;;;;;;;;;;39.10;52.50;;;;;;5113992;28;19915;-82
2022/08/08 15:30:41;;;;;;;;;;;39.00;52.00;;;;;;5112280;28;20270;-79
2022/08/08 15:33:07;;;;;;;;;;;38.80;52.30;;;;;;5113850;28;19911;-81
2022/08/08 15:35:35;;;;;;;;;;;38.60;52.60;;;;;;5113748;28;19953;-82
2022/08/08 15:38:01;;;;;;;;;;;38.30;52.30;;;;;;5113976;28;19919;-83
2022/08/08 15:40:27;;;;;;;;;;;38.10;53.10;;;;;;5114803;28;19908;-82
2022/08/08 15:42:52;;;;;;;;;;;37.90;52.40;;;;;;5114360;28;19915;-78
2022/08/08 15:45:18;;;;;;;;;;;37.70;52.50;;;;;;5112589;28;19916;-81
2022/08/08 15:47:43;;;;;;;;;;;37.50;52.40;;;;;;5113122;28;19930;-80
2022/08/08 15:50:09;;;;;;;;;;;37.30;52.30;;;;;;5113092;28;19970;-84
2022/08/08 15:52:34;;;;;;;;;;;37.10;52.30;;;;;;5112972;28;20262;-79
2022/08/08 15:55:00;;;;;;;;;;;36.90;52.40;;;;;;5114560;28;19931;-80
2022/08/08 15:57:25;;;;;;;;;;;36.60;52.00;;;;;;5115273;28;19931;-80
2022/08/08 15:59:51;;;;;;;;;;;36.50;52.30;;;;;;5114196;28;19915;-81
2022/08/08 16:02:17;;;;;;;;;;;36.30;52.20;;;;;;5114917;28;19915;-82
2022/08/08 16:04:42;;;;;;;;;;;36.10;52.40;;;;;;5117150;28;20320;-82
2022/08/08 16:07:08;;;;;;;;;;;35.80;52.40;;;;;;5118065;28;19908;-83
2022/08/08 16:09:33;;;;;;;;;;;35.60;52.10;;;;;;5117167;28;19943;-82
2022/08/08 16:11:59;;;;;;;;;;;35.50;52.40;;;;;;5116281;28;19919;-80
2022/08/08 16:14:24;;;;;;;;;;;35.20;52.40;;;;;;5117643;28;19922;-80
2022/08/08 16:16:50;;;;;;;;;;;35.10;52.70;;;;;;5120522;28;20262;-83
2022/08/08 16:19:16;;;;;;;;;;;34.80;52.70;;;;;;5119851;28;19994;-82
2022/08/08 16:21:41;;;;;;;;;;;34.60;52.70;;;;;;5118595;28;19915;-81
2022/08/08 16:24:08;;;;;;;;;;;34.50;53.10;;;;;;5117379;28;19908;-82
2022/08/08 16:26:35;;;;;;;;;;;34.30;53.20;;;;;;5117363;28;19953;-83
2022/08/08 16:29:02;;;;;;;;;;;34.10;53.10;;;;;;5116881;28;19915;-82
2022/08/08 16:31:28;;;;;;;;;;;33.90;53.40;;;;;;5116779;28;19920;-83
2022/08/08 16:33:54;;;;;;;;;;;33.80;53.70;;;;;;5116924;28;20502;-80
2022/08/08 16:36:20;;;;;;;;;;;33.60;53.70;;;;;;5116190;28;20319;-79
2022/08/08 16:38:45;;;;;;;;;;;33.50;53.80;;;;;;5118286;28;19943;-82
2022/08/08 16:41:12;;;;;;;;;;;33.40;53.90;;;;;;5098801;28;19919;-88
2022/08/08 16:43:38;;;;;;;;;;;33.20;54.00;;;;;;5117788;28;19932;-86
2022/08/08 16:46:03;;;;;;;;;;;33.10;54.10;;;;;;5116705;28;19973;-82
2022/08/08 16:48:29;;;;;;;;;;;33.00;54.30;;;;;;5117224;28;19912;-88
2022/08/08 16:50:55;;;;;;;;;;;32.80;54.40;;;;;;5099837;28;19916;-87
2022/08/08 16:53:20;;;;;;;;;;;32.70;54.50;;;;;;5117938;28;20027;-85
2022/08/08 16:55:46;;;;;;;;;;;32.50;54.60;;;;;;5118073;28;19908;-87
2022/08/08 16:58:14;;;;;;;;;;;32.30;54.80;;;;;;5117031;28;19976;-89
2022/08/08 17:00:43;;;;;;;;;;;32.20;55.00;;;;;;5115274;28;19972;-88
2022/08/08 17:03:08;;;;;;;;;;;32.00;55.30;;;;;;5116527;28;19977;-89
2022/08/08 17:05:34;;;;;;;;;;;31.80;55.60;;;;;;5115976;28;19981;-87
2022/08/08 17:07:59;;;;;;;;;;;31.60;55.80;;;;;;5116935;28;20003;-88
2022/08/08 17:10:25;;;;;;;;;;;31.40;55.90;;;;;;5115614;28;20361;-86
2022/08/08 17:12:59;;;;;;;;;;;31.30;56.20;;;;;;5117391;28;19908;-87
2022/08/08 17:15:24;;;;;;;;;;;31.10;56.40;;;;;;5100278;28;20308;-86
2022/08/08 17:17:50;;;;;;;;;;;31.00;56.60;;;;;;5117250;28;19912;-84
2022/08/08 17:20:16;;;;;;;;;;;30.80;56.70;;;;;;5116492;28;19908;-89
2022/08/08 17:22:42;;;;;;;;;;;29.30;56.00;;;;;;5117034;28;19908;-88
2022/08/08 17:25:07;;;;;;;;;;;30.60;57.30;;;;;;5115589;28;20259;-84
2022/08/08 17:27:34;;;;;;;;;;;30.50;57.50;;;;;;5114401;28;20354;-84
2022/08/08 17:29:59;;;;;;;;;;;30.40;57.60;;;;;;5116854;28;19912;-80
2022/08/08 17:32:25;;;;;;;;;;;30.30;57.80;;;;;;5115828;28;19908;-80
2022/08/08 17:34:53;;;;;;;;;;;30.20;58.10;;;;;;5116420;28;20354;-84
2022/08/08 17:37:19;;;;;;;;;;;30.10;58.10;;;;;;5114551;28;20362;-83
2022/08/08 17:39:45;;;;;;;;;;;30.00;58.30;;;;;;5114377;28;20411;-80
2022/08/08 17:42:11;;;;;;;;;;;29.80;58.40;;;;;;5115959;28;19912;-81
2022/08/08 17:44:36;;;;;;;;;;;29.80;58.60;;;;;;5115404;28;20383;-80
2022/08/08 17:47:03;;;;;;;;;;;29.70;58.80;;;;;;5115413;28;19915;-81
2022/08/08 17:49:28;;;;;;;;;;;29.70;58.90;;;;;;5116301;28;19908;-80
2022/08/08 17:51:54;;;;;;;;;;;29.60;59.00;;;;;;5113780;28;19908;-78
2022/08/08 17:54:20;;;;;;;;;;;29.50;59.10;;;;;;5117713;28;19911;-81
2022/08/08 17:56:46;;;;;;;;;;;29.40;59.20;;;;;;5113423;28;19915;-81
2022/08/08 17:59:11;;;;;;;;;;;29.40;59.40;;;;;;5115355;28;19965;-78
2022/08/08 18:01:47;;;;;;;;;;;29.30;59.50;;;;;;5115389;28;19912;-81
2022/08/08 18:04:13;;;;;;;;;;;29.20;59.50;;;;;;5115498;28;20350;-82
2022/08/08 18:06:39;;;;;;;;;;;29.20;59.70;;;;;;5115043;28;19919;-79
2022/08/08 18:09:04;;;;;;;;;;;29.10;59.80;;;;;;5116073;28;19908;-82
2022/08/08 18:11:31;;;;;;;;;;;29.10;60.00;;;;;;5115348;28;19920;-82
2022/08/08 18:13:57;;;;;;;;;;;29.00;60.00;;;;;;5115347;28;20243;-80
2022/08/08 18:16:25;;;;;;;;;;;29.00;60.00;;;;;;5114024;28;19957;-82
2022/08/08 18:18:51;;;;;;;;;;;28.90;60.10;;;;;;5115646;28;19908;-80
2022/08/08 18:21:17;;;;;;;;;;;28.90;60.30;;;;;;5114493;28;19908;-78
2022/08/08 18:23:42;;;;;;;;;;;28.80;60.40;;;;;;5113100;28;19907;-79
2022/08/08 18:26:08;;;;;;;;;;;28.80;60.50;;;;;;5114581;28;19912;-80
2022/08/08 18:28:33;;;;;;;;;;;28.80;60.60;;;;;;5115028;28;19919;-79
2022/08/08 18:30:59;;;;;;;;;;;28.70;60.60;;;;;;5115205;28;19962;-79
2022/08/08 18:33:24;;;;;;;;;;;28.60;60.70;;;;;;5114979;28;20239;-78
2022/08/08 18:35:50;;;;;;;;;;;28.60;60.90;;;;;;5113610;28;20361;-78
2022/08/08 18:38:16;;;;;;;;;;;28.60;61.10;;;;;;5113780;28;19941;-76
2022/08/08 18:40:41;;;;;;;;;;;28.50;61.00;;;;;;5116802;28;19915;-81
2022/08/08 18:43:07;;;;;;;;;;;28.50;61.10;;;;;;5115387;28;19914;-82
2022/08/08 18:45:32;;;;;;;;;;;28.40;61.30;;;;;;5114470;28;20299;-80
2022/08/08 18:47:58;;;;;;;;;;;28.40;61.40;;;;;;5115001;28;19911;-82
2022/08/08 18:50:23;;;;;;;;;;;28.30;61.40;;;;;;5115087;28;20370;-81
2022/08/08 18:52:49;;;;;;;;;;;28.30;61.60;;;;;;5114629;28;20412;-81
2022/08/08 18:55:15;;;;;;;;;;;28.30;61.80;;;;;;5113131;28;20362;-82
2022/08/08 18:57:41;;;;;;;;;;;28.20;61.80;;;;;;5114800;28;19908;-84
2022/08/08 19:00:07;;;;;;;;;;;28.20;61.90;;;;;;5114677;28;19915;-82
2022/08/08 19:02:33;;;;;;;;;;;28.20;61.90;;;;;;5114893;28;19994;-78
2022/08/08 19:04:58;;;;;;;;;;;28.10;62.00;;;;;;5113352;28;20381;-77
2022/08/08 19:07:25;;;;;;;;;;;28.00;62.30;;;;;;5112609;28;19907;-76
2022/08/08 19:09:51;;;;;;;;;;;27.90;62.00;;;;;;5113117;28;19995;-76
2022/08/08 19:12:17;;;;;;;;;;;27.70;62.30;;;;;;5114378;28;19911;-80
2022/08/08 19:14:42;;;;;;;;;;;27.40;62.40;;;;;;5113370;28;19915;-80
2022/08/08 19:17:08;;;;;;;;;;;27.40;62.80;;;;;;5114895;28;20040;-79
2022/08/08 19:19:35;;;;;;;;;;;27.30;62.90;;;;;;5114942;28;20258;-78
2022/08/08 19:22:00;;;;;;;;;;;27.20;63.70;;;;;;5113090;28;19908;-78
2022/08/08 19:24:26;;;;;;;;;;;27.00;63.70;;;;;;5113311;28;19908;-79